Vilonia, AR (72173)

9:19 AM CDT on July 27, 2016 (GMT -0500)
North Magness Creek Village | | Change Station

Elev 341 ft 35.04 °N, 92.06 °W | Updated 19 seconds ago

Clear
Clear
86.4 °F
Feels Like 97 °F
N
0.2
Wind Variable Wind from North
Gusts 2.5 mph

Today
High -- | Low -- °F
--% Chance of Precip.
Yesterday
High -- | Low -- °F
Precip. -- in
Pressure 29.94 in
Visibility 10.0 miles
Clouds Clear
Heat Index 97 °F
Dew Point 76 °F
Humidity 72%
Rainfall 0.00 in
Snow Depth Not available.
6:14 AM 8:15 PM
Last Quarter, 43% visible
METAR KLRF 271358Z AUTO 08003KT 10SM CLR 29/24 A2994 RMK AO2 SLP138 T02900242
Pressure 29.94 in
Visibility 10.0 miles
Clouds Clear
Heat Index 97 °F
Dew Point 76 °F
Humidity 72%
Rainfall 0.00 in
Snow Depth Not available.
6:14 AM 8:15 PM
Last Quarter, 43% visible
METAR KLRF 271358Z AUTO 08003KT 10SM CLR 29/24 A2994 RMK AO2 SLP138 T02900242

10-Day Weather Forecast

Almanac

Astronomy

Jul. 27, 2016 Rise Set
Actual Time
Civil Twilight
Nautical Twilight
Astronomical Twilight
Moon
Length of Visible Light
Length of Day
Tomorrow will be .
, % of the Moon is Illuminated

Today's Extremes

State Highs State Lows

Community

WunderPhotos

Upload Photos

1,927,846 photos uploaded!

WunderBlog® & News

Nearby

Air Quality

  Air Quality AQ Index Pollutant
Not available.

Snow Depth

Station Depth Elevation

Earthquake Activity

City Distance Mag. Time & Date
Minimum magnitude displayed is 2.5.

Coastal Water Temperatures

Place Temperature

Stations

Nearby Weather Stations

Station Location Temp. Windchill Dew Point Humidity Wind Precip. Elev Updated Type
                   

Watches & Warnings

There are currently no watches in effect.